MSC Fabiola — A8VL5 — position and weather

sailwx.info

Track history (hours):
 
Tides and Currents Weather Stations Pressure Air Temp Water Temp Dewpoint Dewpoint Depression Visibility Wind Speed Wind Dir Waves Ship Positions

MSC Fabiola

Last reported at 2015-Jan-26 22:33 UTC. Time now 2015-Jan-27 01:09 UTC.
Position N 51°20' E 003°12'.

Length 366 m; draft 13.5 m.

Type: Ship. MMSI: 636092019.

Date/timePositionNaut miles runAvg speedWind from/ knotsBaromVisibWave heightAir tempDewpointWater temp
2015-Jan-26 22:33N 51°20' E 003°12'0 0.0
2015-Jan-26 21:33N 51°20' E 003°12'0 0.0
2015-Jan-26 20:33N 51°20' E 003°12'0 0.0
2015-Jan-26 19:33N 51°20' E 003°12'5 5.0
2015-Jan-26 18:33N 51°24' E 003°06'1313.3
2015-Jan-26 17:33N 51°24' E 002°45'3 3.4
2015-Jan-26 16:33N 51°24' E 002°40'3 2.5
2015-Jan-26 15:33N 51°26' E 002°42'0 0.1
2015-Jan-26 14:33N 51°26' E 002°42'0 0.1
2015-Jan-26 13:30N 51°26' E 002°42'0 0.0
2015-Jan-26 12:33N 51°26' E 002°42'0 0.1
2015-Jan-26 11:30N 51°26' E 002°42'0 0.2
2015-Jan-26 10:33N 51°26' E 002°42'0 0.1
2015-Jan-26 09:33N 51°26' E 002°42'0 0.0
2015-Jan-26 08:33N 51°27' E 002°42'0 0.0
2015-Jan-26 07:33N 51°27' E 002°42'0 0.0
2015-Jan-26 06:33N 51°27' E 002°42'0 0.2
2015-Jan-26 05:30N 51°26' E 002°42'6 6.1
2015-Jan-26 04:33N 51°22' E 002°35'1313.5
2015-Jan-26 03:34N 51°19' E 002°14'1212.1
2015-Jan-26 02:33N 51°24' E 001°57'1212.2
2015-Jan-26 01:34N 51°35' E 001°47'1312.8
2015-Jan-26 00:34N 51°47' E 001°44'1211.6
2015-Jan-25 23:33N 51°56' E 001°31'8 8.3
2015-Jan-25 22:33N 51°57' E 001°18'1 0.5
2015-Jan-25 21:33N 51°57' E 001°19'0 0.0
2015-Jan-25 20:28N 51°57' E 001°19'0 0.0
2015-Jan-25 19:28N 51°57' E 001°19'0 0.0
2015-Jan-25 18:31N 51°57' E 001°19'0 0.0
2015-Jan-25 17:28N 51°57' E 001°19'0 0.0
2015-Jan-25 16:31N 51°57' E 001°19'0 0.0
2015-Jan-25 15:31N 51°57' E 001°19'0 0.0
2015-Jan-25 14:31N 51°57' E 001°19'0 0.0
2015-Jan-25 13:31N 51°57' E 001°19'0 0.0
2015-Jan-25 12:31N 51°57' E 001°19'0 0.0
2015-Jan-25 11:31N 51°57' E 001°19'0 0.0
2015-Jan-25 10:31N 51°57' E 001°19'0 0.0
2015-Jan-25 09:31N 51°57' E 001°19'0 0.0
2015-Jan-25 08:28N 51°57' E 001°19'0 0.0
2015-Jan-25 07:28N 51°57' E 001°19'0 0.0
2015-Jan-25 06:31N 51°57' E 001°19'0 0.0
2015-Jan-25 05:28N 51°57' E 001°19'0 0.0
2015-Jan-25 04:31N 51°57' E 001°19'0 0.0
2015-Jan-25 03:31N 51°57' E 001°19'0 0.0
2015-Jan-25 02:31N 51°57' E 001°19'0 0.0
2015-Jan-25 01:31N 51°57' E 001°19'0 0.0
2015-Jan-25 00:31N 51°57' E 001°19'0 0.0
2015-Jan-24 23:31N 51°57' E 001°19'0 0.0
2015-Jan-24 22:31N 51°57' E 001°19'0 0.0
2015-Jan-24 21:31N 51°57' E 001°19'0 0.0
2015-Jan-24 20:31N 51°57' E 001°19'0 0.0
2015-Jan-24 19:31N 51°57' E 001°19'0 0.0
2015-Jan-24 18:31N 51°57' E 001°19'0 0.0
2015-Jan-24 17:31N 51°57' E 001°19'2 2.3
2015-Jan-24 16:33N 51°56' E 001°22'10 9.6
2015-Jan-24 15:34N 51°52' E 001°36'6 6.3
2015-Jan-24 14:34N 51°51' E 001°46'6 6.1
2015-Jan-24 13:34N 51°45' E 001°49'8 8.2
2015-Jan-24 12:34N 51°37' E 001°50'3 3.3
2015-Jan-24 11:34N 51°34' E 001°50'3 2.8
2015-Jan-24 10:34N 51°31' E 001°48'3 2.6
2015-Jan-24 09:34N 51°34' E 001°48'2 2.2
2015-Jan-24 08:33N 51°35' E 001°51'1313.4
2015-Jan-24 07:33N 51°25' E 002°04'1111.4
2015-Jan-24 06:33N 51°13' E 002°02'1414.1
2015-Jan-24 05:34N 51°05' E 001°44'1414.1
2015-Jan-24 04:34N 50°55' E 001°29'3113.9
2015-Jan-24 02:20N 50°30' E 000°60'  
2015-Jan-21 18:33N 39°14' W 009°52'1815.2
2015-Jan-21 17:22N 38°56' W 009°53'1316.2
2015-Jan-21 16:33N 38°43' W 009°52'1716.9
2015-Jan-21 15:33N 38°27' W 009°44'1817.5
2015-Jan-21 14:33N 38°10' W 009°40'1817.7
2015-Jan-21 13:33N 37°53' W 009°35'1818.1
2015-Jan-21 12:33N 37°35' W 009°30'21217.7
2015-Jan-21 00:33N 35°58' W 005°35'1717.1
2015-Jan-20 23:34N 36°03' W 005°14'95320.3
2015-Jan-19 00:33N 36°26' E 014°27'  
Track history (hours):
 
Tides and Currents Weather Stations Pressure Air Temp Water Temp Dewpoint Dewpoint Depression Visibility Wind Speed Wind Dir Waves Ship Positions

MSC Fabiola

Last reported at 2015-Jan-26 22:33 UTC. Time now 2015-Jan-27 01:09 UTC.
Position N 51°20' E 003°12'.

Length 366 m; draft 13.5 m.

Type: Ship. MMSI: 636092019.

Date/timePositionNaut miles runAvg speedWind from/ knotsBaromVisibWave heightAir tempDewpointWater temp
2015-Jan-26 22:33N 51°20' E 003°12'0 0.0
2015-Jan-26 21:33N 51°20' E 003°12'0 0.0
2015-Jan-26 20:33N 51°20' E 003°12'0 0.0
2015-Jan-26 19:33N 51°20' E 003°12'5 5.0
2015-Jan-26 18:33N 51°24' E 003°06'1313.3
2015-Jan-26 17:33N 51°24' E 002°45'3 3.4
2015-Jan-26 16:33N 51°24' E 002°40'3 2.5
2015-Jan-26 15:33N 51°26' E 002°42'0 0.1
2015-Jan-26 14:33N 51°26' E 002°42'0 0.1
2015-Jan-26 13:30N 51°26' E 002°42'0 0.0
2015-Jan-26 12:33N 51°26' E 002°42'0 0.1
2015-Jan-26 11:30N 51°26' E 002°42'0 0.2
2015-Jan-26 10:33N 51°26' E 002°42'0 0.1
2015-Jan-26 09:33N 51°26' E 002°42'0 0.0
2015-Jan-26 08:33N 51°27' E 002°42'0 0.0
2015-Jan-26 07:33N 51°27' E 002°42'0 0.0
2015-Jan-26 06:33N 51°27' E 002°42'0 0.2
2015-Jan-26 05:30N 51°26' E 002°42'6 6.1
2015-Jan-26 04:33N 51°22' E 002°35'1313.5
2015-Jan-26 03:34N 51°19' E 002°14'1212.1
2015-Jan-26 02:33N 51°24' E 001°57'1212.2
2015-Jan-26 01:34N 51°35' E 001°47'1312.8
2015-Jan-26 00:34N 51°47' E 001°44'1211.6
2015-Jan-25 23:33N 51°56' E 001°31'8 8.3
2015-Jan-25 22:33N 51°57' E 001°18'1 0.5
2015-Jan-25 21:33N 51°57' E 001°19'0 0.0
2015-Jan-25 20:28N 51°57' E 001°19'0 0.0
2015-Jan-25 19:28N 51°57' E 001°19'0 0.0
2015-Jan-25 18:31N 51°57' E 001°19'0 0.0
2015-Jan-25 17:28N 51°57' E 001°19'0 0.0
2015-Jan-25 16:31N 51°57' E 001°19'0 0.0
2015-Jan-25 15:31N 51°57' E 001°19'0 0.0
2015-Jan-25 14:31N 51°57' E 001°19'0 0.0
2015-Jan-25 13:31N 51°57' E 001°19'0 0.0
2015-Jan-25 12:31N 51°57' E 001°19'0 0.0
2015-Jan-25 11:31N 51°57' E 001°19'0 0.0
2015-Jan-25 10:31N 51°57' E 001°19'0 0.0
2015-Jan-25 09:31N 51°57' E 001°19'0 0.0
2015-Jan-25 08:28N 51°57' E 001°19'0 0.0
2015-Jan-25 07:28N 51°57' E 001°19'0 0.0
2015-Jan-25 06:31N 51°57' E 001°19'0 0.0
2015-Jan-25 05:28N 51°57' E 001°19'0 0.0
2015-Jan-25 04:31N 51°57' E 001°19'0 0.0
2015-Jan-25 03:31N 51°57' E 001°19'0 0.0
2015-Jan-25 02:31N 51°57' E 001°19'0 0.0
2015-Jan-25 01:31N 51°57' E 001°19'0 0.0
2015-Jan-25 00:31N 51°57' E 001°19'0 0.0
2015-Jan-24 23:31N 51°57' E 001°19'0 0.0
2015-Jan-24 22:31N 51°57' E 001°19'0 0.0
2015-Jan-24 21:31N 51°57' E 001°19'0 0.0
2015-Jan-24 20:31N 51°57' E 001°19'0 0.0
2015-Jan-24 19:31N 51°57' E 001°19'0 0.0
2015-Jan-24 18:31N 51°57' E 001°19'0 0.0
2015-Jan-24 17:31N 51°57' E 001°19'2 2.3
2015-Jan-24 16:33N 51°56' E 001°22'10 9.6
2015-Jan-24 15:34N 51°52' E 001°36'6 6.3
2015-Jan-24 14:34N 51°51' E 001°46'6 6.1
2015-Jan-24 13:34N 51°45' E 001°49'8 8.2
2015-Jan-24 12:34N 51°37' E 001°50'3 3.3
2015-Jan-24 11:34N 51°34' E 001°50'3 2.8
2015-Jan-24 10:34N 51°31' E 001°48'3 2.6
2015-Jan-24 09:34N 51°34' E 001°48'2 2.2
2015-Jan-24 08:33N 51°35' E 001°51'1313.4
2015-Jan-24 07:33N 51°25' E 002°04'1111.4
2015-Jan-24 06:33N 51°13' E 002°02'1414.1
2015-Jan-24 05:34N 51°05' E 001°44'1414.1
2015-Jan-24 04:34N 50°55' E 001°29'3113.9
2015-Jan-24 02:20N 50°30' E 000°60'  
2015-Jan-21 18:33N 39°14' W 009°52'1815.2
2015-Jan-21 17:22N 38°56' W 009°53'1316.2
2015-Jan-21 16:33N 38°43' W 009°52'1716.9
2015-Jan-21 15:33N 38°27' W 009°44'1817.5
2015-Jan-21 14:33N 38°10' W 009°40'1817.7
2015-Jan-21 13:33N 37°53' W 009°35'1818.1
2015-Jan-21 12:33N 37°35' W 009°30'21217.7
2015-Jan-21 00:33N 35°58' W 005°35'1717.1
2015-Jan-20 23:34N 36°03' W 005°14'95320.3
2015-Jan-19 00:33N 36°26' E 014°27'  

Dump ship's entire track history